Eldorado, WI (54932)

5:12 PM CST on December 09, 2016 (GMT -0600)
N9QBW | | Change Station
Active Advisory: Winter Storm Watch

Elev 897 ft 43.82 °N, 88.62 °W | Updated 17 seconds ago

Clear
Clear
16.5 °F
Feels Like 16 °F
N
1.7
Wind Variable Wind from WSW

Today
High -- | Low -- °F
--% Chance of Precip.
Yesterday
High -- | Low -- °F
Precip. -- in
Pressure 30.51 in
Visibility 10.0 miles
Clouds Clear
Windchill 16 °F
Dew Point 16 °F
Humidity 99%
Rainfall 0.00 in
Snow Depth Not available.
7:17 AM 4:16 PM
Waxing Gibbous, 78% visible
METAR KFLD 092253Z AUTO 30006KT 10SM CLR M07/M15 A3046 RMK AO2 SLP331 T10721150
Pressure 30.51 in
Visibility 10.0 miles
Clouds Clear
Windchill 16 °F
Dew Point 16 °F
Humidity 99%
Rainfall 0.00 in
Snow Depth Not available.
7:17 AM 4:16 PM
Waxing Gibbous, 78% visible
METAR KFLD 092253Z AUTO 30006KT 10SM CLR M07/M15 A3046 RMK AO2 SLP331 T10721150

10-Day Weather Forecast

Almanac

Astronomy

Dec. 09, 2016 Rise Set
Actual Time
Civil Twilight
Nautical Twilight
Astronomical Twilight
Moon
Length of Visible Light
Length of Day
Tomorrow will be .
, % of the Moon is Illuminated

Today's Extremes

State Highs State Lows

Community

WunderPhotos

Upload Photos

1,956,535 photos uploaded!

WunderBlog® & News

Nearby

Air Quality

  Air Quality AQ Index Pollutant
Not available.

Snow Depth

Station Depth Elevation

Earthquake Activity

City Distance Mag. Time & Date
Minimum magnitude displayed is 2.5.

Coastal Water Temperatures

Place Temperature

Stations

Nearby Weather Stations

Station Location Temp. Windchill Dew Point Humidity Wind Precip. Elev Updated Type
                   

Watches & Warnings

Winter Storm Watch
Issued: 2:50 PM CST Dec. 9, 2016 – National Weather Service

... Winter Storm Watch remains in effect from Saturday evening
through Sunday evening...

A Winter Storm Watch remains in effect from Saturday evening
through Sunday evening.

* Timing... snow developing Saturday evening continuing through
Sunday.

* Snow accumulations... 6 to 10 inches.

* Winds... southeast 10 to 15 mph with gusts to 20 mph on Sunday
turning to the west later Sunday night into Monday morning.

* Impacts... hazardous travel conditions developing Saturday
night continuing into Sunday. Reduced visibility due to
falling snow with some drifting snow.

Precautionary/preparedness actions...

A Winter Storm Watch means there is a potential for significant
snow... sleet... or ice accumulations that may impact travel.
Continue to monitor the latest forecasts.


Mbk